FIN5DM EFHK-LHBP
Flight info
| Callsign | FIN5DM |
|---|---|
| Flight time | 1h 52m |
| Altitude | 38000 |
| Route | KOIVU Y123 LARTI DCT BERIL DCT SUWGI DCT UNPEG DCT XESNA DCT GERVI DCT MODGU DCT KELEL DCT EDEMU |
| Aircraft | A320/M-SDE1E2E3FGIM1RWXY/LB1 |
Departure
| Time | 2026-04-22 15:39 |
|---|---|
| Airport | Helsinki Vantaa Airport (EFHK) |
Arrival
| Time | 2026-04-22 17:31 |
|---|---|
| Airport | Budapest Liszt Ferenc International Airport (LHBP) |
| Time | Latitude | Longitude | Altitude | Speed | Heading |
|---|---|---|---|---|---|
| 2026-04-22 15:08 | 60.31801 | 24.96392 | 167 ft | 0 kts | 137° |
| 2026-04-22 15:29 | 60.31803 | 24.96389 | 167 ft | 2 kts | 137° |
| 2026-04-22 15:30 | 60.31837 | 24.96325 | 167 ft | 4 kts | 152° |
| 2026-04-22 15:30 | 60.31856 | 24.96325 | 167 ft | 4 kts | 226° |
| 2026-04-22 15:30 | 60.31873 | 24.96363 | 167 ft | 4 kts | 227° |
| 2026-04-22 15:30 | 60.31883 | 24.96385 | 167 ft | 0 kts | 227° |
| 2026-04-22 15:32 | 60.31883 | 24.96384 | 167 ft | 0 kts | 227° |
| 2026-04-22 15:33 | 60.31876 | 24.96369 | 167 ft | 5 kts | 228° |
| 2026-04-22 15:33 | 60.31856 | 24.96302 | 167 ft | 7 kts | 250° |
| 2026-04-22 15:33 | 60.31860 | 24.96174 | 167 ft | 11 kts | 291° |
| 2026-04-22 15:33 | 60.31913 | 24.96053 | 167 ft | 11 kts | 316° |
| 2026-04-22 15:34 | 60.31924 | 24.95949 | 169 ft | 9 kts | 237° |
| 2026-04-22 15:34 | 60.31866 | 24.95820 | 169 ft | 15 kts | 227° |
| 2026-04-22 15:34 | 60.31790 | 24.95652 | 170 ft | 18 kts | 227° |
| 2026-04-22 15:34 | 60.31698 | 24.95451 | 171 ft | 20 kts | 227° |
| 2026-04-22 15:35 | 60.31633 | 24.95307 | 170 ft | 22 kts | 228° |
| 2026-04-22 15:35 | 60.31491 | 24.94991 | 168 ft | 24 kts | 227° |
| 2026-04-22 15:35 | 60.31370 | 24.94726 | 163 ft | 27 kts | 227° |
| 2026-04-22 15:35 | 60.31241 | 24.94441 | 159 ft | 27 kts | 226° |
| 2026-04-22 15:36 | 60.31114 | 24.94163 | 157 ft | 27 kts | 227° |
| 2026-04-22 15:36 | 60.31037 | 24.93985 | 158 ft | 13 kts | 240° |
| 2026-04-22 15:36 | 60.31051 | 24.93814 | 159 ft | 13 kts | 304° |
| 2026-04-22 15:36 | 60.31122 | 24.93689 | 157 ft | 11 kts | 330° |
| 2026-04-22 15:37 | 60.31163 | 24.93714 | 158 ft | 0 kts | 45° |
| 2026-04-22 15:38 | 60.31194 | 24.93778 | 159 ft | 20 kts | 46° |
| 2026-04-22 15:38 | 60.31909 | 24.95353 | 174 ft | 138 kts | 47° |
| 2026-04-22 15:38 | 60.32676 | 24.97040 | 319 ft | 172 kts | 40° |
| 2026-04-22 15:39 | 60.33428 | 24.98797 | 1128 ft | 167 kts | 41° |
| 2026-04-22 15:39 | 60.34189 | 25.00535 | 1901 ft | 164 kts | 37° |
| 2026-04-22 15:39 | 60.34964 | 25.02220 | 2581 ft | 167 kts | 37° |
| 2026-04-22 15:39 | 60.35814 | 25.04032 | 2934 ft | 189 kts | 37° |
| 2026-04-22 15:40 | 60.36768 | 25.06074 | 3267 ft | 211 kts | 38° |
| 2026-04-22 15:40 | 60.37829 | 25.08363 | 3654 ft | 236 kts | 39° |
| 2026-04-22 15:40 | 60.38909 | 25.11044 | 4297 ft | 259 kts | 56° |
| 2026-04-22 15:40 | 60.39247 | 25.14739 | 5151 ft | 283 kts | 92° |
| 2026-04-22 15:41 | 60.38671 | 25.18609 | 6152 ft | 290 kts | 107° |
| 2026-04-22 15:41 | 60.37827 | 25.22330 | 7104 ft | 294 kts | 114° |
| 2026-04-22 15:41 | 60.36510 | 25.25596 | 7930 ft | 309 kts | 137° |
| 2026-04-22 15:41 | 60.34578 | 25.27609 | 8725 ft | 320 kts | 166° |
| 2026-04-22 15:42 | 60.32357 | 25.27737 | 9507 ft | 324 kts | 195° |
| 2026-04-22 15:42 | 60.30306 | 25.25956 | 10130 ft | 326 kts | 218° |
| 2026-04-22 15:42 | 60.28330 | 25.23390 | 10404 ft | 349 kts | 219° |
| 2026-04-22 15:42 | 60.26268 | 25.20621 | 10866 ft | 362 kts | 220° |
| 2026-04-22 15:43 | 60.24154 | 25.17783 | 11568 ft | 368 kts | 220° |
| 2026-04-22 15:43 | 60.22003 | 25.14927 | 12294 ft | 373 kts | 220° |
| 2026-04-22 15:43 | 60.19816 | 25.12057 | 13030 ft | 378 kts | 220° |
| 2026-04-22 15:43 | 60.17595 | 25.09158 | 13712 ft | 383 kts | 220° |
| 2026-04-22 15:44 | 60.15344 | 25.06235 | 14347 ft | 388 kts | 221° |
| 2026-04-22 15:44 | 60.13065 | 25.03282 | 14932 ft | 392 kts | 220° |
| 2026-04-22 15:44 | 60.10762 | 25.00294 | 15552 ft | 397 kts | 221° |
| 2026-04-22 15:44 | 60.08428 | 24.97264 | 16145 ft | 402 kts | 221° |
| 2026-04-22 15:45 | 60.06065 | 24.94206 | 16726 ft | 407 kts | 221° |
| 2026-04-22 15:45 | 60.03672 | 24.91115 | 17310 ft | 413 kts | 221° |
| 2026-04-22 15:45 | 60.01241 | 24.87980 | 17882 ft | 418 kts | 221° |
| 2026-04-22 15:45 | 59.98781 | 24.84812 | 18394 ft | 423 kts | 221° |
| 2026-04-22 15:46 | 59.96294 | 24.81615 | 18921 ft | 427 kts | 221° |
| 2026-04-22 15:46 | 59.93787 | 24.78401 | 19474 ft | 431 kts | 221° |
| 2026-04-22 15:46 | 59.91251 | 24.75155 | 20024 ft | 434 kts | 221° |
| 2026-04-22 15:46 | 59.88701 | 24.71900 | 20535 ft | 437 kts | 221° |
| 2026-04-22 15:47 | 59.86104 | 24.68693 | 21090 ft | 444 kts | 216° |
| 2026-04-22 15:47 | 59.83251 | 24.66139 | 21638 ft | 456 kts | 205° |
| 2026-04-22 15:47 | 59.80159 | 24.64451 | 22165 ft | 464 kts | 198° |
| 2026-04-22 15:47 | 59.76997 | 24.62983 | 22697 ft | 468 kts | 198° |
| 2026-04-22 15:48 | 59.73821 | 24.61504 | 23211 ft | 471 kts | 198° |
| 2026-04-22 15:48 | 59.71700 | 24.60511 | 23520 ft | 474 kts | 198° |
| 2026-04-22 15:48 | 59.68482 | 24.59002 | 23930 ft | 477 kts | 198° |
| 2026-04-22 15:48 | 59.65242 | 24.57521 | 24331 ft | 481 kts | 197° |
| 2026-04-22 15:49 | 59.61955 | 24.56160 | 24716 ft | 484 kts | 195° |
| 2026-04-22 15:49 | 59.58632 | 24.54899 | 25090 ft | 487 kts | 194° |
| 2026-04-22 15:49 | 59.55293 | 24.53692 | 25499 ft | 490 kts | 194° |
| 2026-04-22 15:49 | 59.51930 | 24.52488 | 25887 ft | 492 kts | 194° |
| 2026-04-22 15:50 | 59.48553 | 24.51263 | 26253 ft | 495 kts | 194° |
| 2026-04-22 15:50 | 59.45161 | 24.50003 | 26608 ft | 498 kts | 194° |
| 2026-04-22 15:50 | 59.41750 | 24.48711 | 26969 ft | 500 kts | 194° |
| 2026-04-22 15:50 | 59.38326 | 24.47398 | 27316 ft | 503 kts | 194° |
| 2026-04-22 15:51 | 59.34886 | 24.46074 | 27675 ft | 506 kts | 194° |
| 2026-04-22 15:51 | 59.31423 | 24.44750 | 28025 ft | 508 kts | 194° |
| 2026-04-22 15:51 | 59.27944 | 24.43435 | 28365 ft | 511 kts | 193° |
| 2026-04-22 15:51 | 59.24438 | 24.42122 | 28709 ft | 513 kts | 193° |
| 2026-04-22 15:52 | 59.20919 | 24.40810 | 29028 ft | 516 kts | 193° |
| 2026-04-22 15:52 | 59.17387 | 24.39499 | 29352 ft | 519 kts | 193° |
| 2026-04-22 15:52 | 59.13835 | 24.38179 | 29724 ft | 521 kts | 193° |
| 2026-04-22 15:52 | 59.10258 | 24.36850 | 29930 ft | 526 kts | 193° |
| 2026-04-22 15:53 | 59.06649 | 24.35511 | 30148 ft | 529 kts | 193° |
| 2026-04-22 15:53 | 59.03026 | 24.34168 | 30352 ft | 531 kts | 193° |
| 2026-04-22 15:53 | 58.99400 | 24.32829 | 30660 ft | 531 kts | 193° |
| 2026-04-22 15:53 | 58.95766 | 24.31493 | 30933 ft | 532 kts | 192° |
| 2026-04-22 15:54 | 58.92122 | 24.30154 | 31160 ft | 533 kts | 192° |
| 2026-04-22 15:54 | 58.88479 | 24.28813 | 31442 ft | 534 kts | 192° |
| 2026-04-22 15:54 | 58.84832 | 24.27473 | 31760 ft | 533 kts | 192° |
| 2026-04-22 15:54 | 58.81190 | 24.26137 | 32076 ft | 533 kts | 192° |
| 2026-04-22 15:55 | 58.77548 | 24.24809 | 32387 ft | 532 kts | 192° |
| 2026-04-22 15:55 | 58.73903 | 24.23484 | 32685 ft | 532 kts | 192° |
| 2026-04-22 15:55 | 58.70266 | 24.22160 | 32994 ft | 532 kts | 192° |
| 2026-04-22 15:55 | 58.66635 | 24.20839 | 33306 ft | 532 kts | 191° |
| 2026-04-22 15:56 | 58.62998 | 24.19525 | 33620 ft | 531 kts | 191° |
| 2026-04-22 15:56 | 58.59365 | 24.18221 | 33927 ft | 531 kts | 191° |
| 2026-04-22 15:56 | 58.55732 | 24.16918 | 34205 ft | 531 kts | 191° |
| 2026-04-22 15:56 | 58.52108 | 24.15613 | 34486 ft | 530 kts | 191° |
| 2026-04-22 15:57 | 58.48491 | 24.14311 | 34750 ft | 529 kts | 191° |
| 2026-04-22 15:57 | 58.44878 | 24.13015 | 35020 ft | 527 kts | 191° |
| 2026-04-22 15:57 | 58.41281 | 24.11726 | 35333 ft | 525 kts | 190° |
| 2026-04-22 15:57 | 58.37693 | 24.10443 | 35618 ft | 524 kts | 190° |
| 2026-04-22 15:58 | 58.34114 | 24.09170 | 35897 ft | 522 kts | 190° |
| 2026-04-22 15:58 | 58.30548 | 24.07907 | 36148 ft | 521 kts | 190° |
| 2026-04-22 15:58 | 58.26984 | 24.06645 | 36387 ft | 520 kts | 190° |
| 2026-04-22 15:58 | 58.23434 | 24.05396 | 36631 ft | 519 kts | 190° |
| 2026-04-22 15:59 | 58.19880 | 24.04149 | 36852 ft | 518 kts | 190° |
| 2026-04-22 15:59 | 58.16343 | 24.02907 | 37067 ft | 517 kts | 189° |
| 2026-04-22 15:59 | 58.12814 | 24.01665 | 37325 ft | 515 kts | 189° |
| 2026-04-22 15:59 | 58.09298 | 24.00428 | 37553 ft | 514 kts | 189° |
| 2026-04-22 16:00 | 58.05781 | 23.99191 | 37795 ft | 513 kts | 189° |
| 2026-04-22 16:00 | 58.02274 | 23.97957 | 37871 ft | 513 kts | 189° |
| 2026-04-22 16:00 | 57.95257 | 23.95515 | 37879 ft | 512 kts | 189° |
| 2026-04-22 16:01 | 57.88247 | 23.93090 | 37878 ft | 512 kts | 189° |
| 2026-04-22 16:01 | 57.81284 | 23.90689 | 37884 ft | 512 kts | 189° |
| 2026-04-22 16:02 | 57.74280 | 23.88273 | 37895 ft | 512 kts | 189° |
| 2026-04-22 16:02 | 57.67266 | 23.85863 | 37910 ft | 513 kts | 189° |
| 2026-04-22 16:03 | 57.60249 | 23.83477 | 37887 ft | 513 kts | 188° |
| 2026-04-22 16:03 | 57.53239 | 23.81096 | 37925 ft | 512 kts | 188° |
| 2026-04-22 16:04 | 57.46230 | 23.78719 | 37933 ft | 511 kts | 188° |
| 2026-04-22 16:04 | 57.39235 | 23.76342 | 37928 ft | 511 kts | 188° |
| 2026-04-22 16:05 | 57.32246 | 23.73989 | 37952 ft | 510 kts | 188° |
| 2026-04-22 16:05 | 57.25265 | 23.71670 | 37955 ft | 509 kts | 188° |
| 2026-04-22 16:06 | 57.18292 | 23.69344 | 37945 ft | 509 kts | 188° |
| 2026-04-22 16:06 | 57.11333 | 23.67024 | 37953 ft | 508 kts | 188° |
| 2026-04-22 16:07 | 57.04375 | 23.64720 | 37946 ft | 508 kts | 187° |
| 2026-04-22 16:07 | 56.97430 | 23.62429 | 37970 ft | 507 kts | 187° |
| 2026-04-22 16:08 | 56.90497 | 23.60150 | 37974 ft | 506 kts | 187° |
| 2026-04-22 16:08 | 56.83568 | 23.57886 | 37968 ft | 505 kts | 187° |
| 2026-04-22 16:09 | 56.76652 | 23.55630 | 37950 ft | 504 kts | 187° |
| 2026-04-22 16:09 | 56.69753 | 23.53384 | 37967 ft | 503 kts | 187° |
| 2026-04-22 16:10 | 56.62860 | 23.51155 | 37961 ft | 503 kts | 187° |
| 2026-04-22 16:10 | 56.55978 | 23.48932 | 37966 ft | 502 kts | 187° |
| 2026-04-22 16:11 | 56.49099 | 23.46730 | 37968 ft | 502 kts | 187° |
| 2026-04-22 16:11 | 56.42229 | 23.44526 | 37963 ft | 501 kts | 187° |
| 2026-04-22 16:12 | 56.35357 | 23.42339 | 37967 ft | 501 kts | 186° |
| 2026-04-22 16:12 | 56.28467 | 23.40516 | 37962 ft | 500 kts | 184° |
| 2026-04-22 16:13 | 56.21574 | 23.38998 | 37968 ft | 499 kts | 183° |
| 2026-04-22 16:13 | 56.14672 | 23.37451 | 37966 ft | 499 kts | 183° |
| 2026-04-22 16:14 | 56.07781 | 23.35799 | 38002 ft | 500 kts | 184° |
| 2026-04-22 16:14 | 56.00894 | 23.34113 | 37970 ft | 500 kts | 184° |
| 2026-04-22 16:15 | 55.93992 | 23.32455 | 37965 ft | 500 kts | 184° |
| 2026-04-22 16:15 | 55.87106 | 23.30822 | 37966 ft | 499 kts | 183° |
| 2026-04-22 16:16 | 55.80218 | 23.29194 | 37965 ft | 499 kts | 184° |
| 2026-04-22 16:16 | 55.73336 | 23.27564 | 37965 ft | 499 kts | 183° |
| 2026-04-22 16:17 | 55.66461 | 23.25950 | 37969 ft | 498 kts | 183° |
| 2026-04-22 16:17 | 55.59596 | 23.24349 | 37967 ft | 497 kts | 183° |
| 2026-04-22 16:18 | 55.52733 | 23.22743 | 37967 ft | 497 kts | 183° |
| 2026-04-22 16:18 | 55.45879 | 23.21148 | 37968 ft | 497 kts | 183° |
| 2026-04-22 16:19 | 55.39036 | 23.19561 | 37966 ft | 496 kts | 183° |
| 2026-04-22 16:19 | 55.32204 | 23.17986 | 37969 ft | 494 kts | 183° |
| 2026-04-22 16:20 | 55.25391 | 23.16423 | 37973 ft | 493 kts | 183° |
| 2026-04-22 16:20 | 55.18589 | 23.14868 | 38004 ft | 493 kts | 183° |
| 2026-04-22 16:21 | 55.11802 | 23.13318 | 37971 ft | 491 kts | 183° |
| 2026-04-22 16:21 | 55.05034 | 23.11786 | 37979 ft | 490 kts | 183° |
| 2026-04-22 16:22 | 54.94895 | 23.09482 | 37965 ft | 489 kts | 183° |
| 2026-04-22 16:23 | 54.84774 | 23.07195 | 37988 ft | 488 kts | 182° |
| 2026-04-22 16:23 | 54.78044 | 23.05681 | 37989 ft | 487 kts | 182° |
| 2026-04-22 16:24 | 54.67967 | 23.03427 | 37999 ft | 486 kts | 182° |
| 2026-04-22 16:25 | 54.61265 | 23.01945 | 37989 ft | 486 kts | 182° |
| 2026-04-22 16:25 | 54.51226 | 22.99720 | 38004 ft | 484 kts | 182° |
| 2026-04-22 16:26 | 54.44590 | 22.98236 | 38006 ft | 483 kts | 182° |
| 2026-04-22 16:26 | 54.37924 | 22.96773 | 38007 ft | 483 kts | 182° |
| 2026-04-22 16:27 | 54.31263 | 22.95320 | 38024 ft | 482 kts | 182° |
| 2026-04-22 16:27 | 54.24622 | 22.93862 | 37995 ft | 481 kts | 182° |
| 2026-04-22 16:28 | 54.17976 | 22.92402 | 37994 ft | 481 kts | 182° |
| 2026-04-22 16:28 | 54.11285 | 22.90946 | 37993 ft | 481 kts | 182° |
| 2026-04-22 16:29 | 54.04658 | 22.89154 | 38008 ft | 485 kts | 188° |
| 2026-04-22 16:29 | 53.98116 | 22.86667 | 38002 ft | 485 kts | 188° |
| 2026-04-22 16:30 | 53.91531 | 22.84148 | 37991 ft | 485 kts | 188° |
| 2026-04-22 16:30 | 53.84937 | 22.81646 | 37999 ft | 486 kts | 188° |
| 2026-04-22 16:31 | 53.79413 | 22.79557 | 38000 ft | 486 kts | 188° |
| 2026-04-22 16:31 | 53.72818 | 22.77064 | 37998 ft | 485 kts | 188° |
| 2026-04-22 16:32 | 53.66228 | 22.74590 | 38002 ft | 485 kts | 188° |
| 2026-04-22 16:32 | 53.59636 | 22.72140 | 38020 ft | 485 kts | 188° |
| 2026-04-22 16:33 | 53.53044 | 22.69682 | 38017 ft | 485 kts | 188° |
| 2026-04-22 16:33 | 53.46463 | 22.67222 | 38013 ft | 484 kts | 188° |
| 2026-04-22 16:34 | 53.39888 | 22.64784 | 38010 ft | 484 kts | 188° |
| 2026-04-22 16:34 | 53.33311 | 22.62366 | 38013 ft | 483 kts | 188° |
| 2026-04-22 16:35 | 53.26750 | 22.59943 | 38035 ft | 483 kts | 188° |
| 2026-04-22 16:35 | 53.20189 | 22.57528 | 38009 ft | 483 kts | 188° |
| 2026-04-22 16:36 | 53.13625 | 22.55132 | 37992 ft | 483 kts | 188° |
| 2026-04-22 16:36 | 53.07058 | 22.52737 | 38019 ft | 483 kts | 188° |
| 2026-04-22 16:37 | 53.00480 | 22.50340 | 38005 ft | 484 kts | 188° |
| 2026-04-22 16:37 | 52.93904 | 22.47957 | 38012 ft | 484 kts | 188° |
| 2026-04-22 16:38 | 52.87321 | 22.45572 | 38019 ft | 484 kts | 188° |
| 2026-04-22 16:38 | 52.80736 | 22.43191 | 38031 ft | 484 kts | 188° |
| 2026-04-22 16:39 | 52.74161 | 22.40819 | 38038 ft | 483 kts | 188° |
| 2026-04-22 16:39 | 52.67587 | 22.38479 | 38032 ft | 483 kts | 188° |
| 2026-04-22 16:40 | 52.61019 | 22.36142 | 38041 ft | 483 kts | 188° |
| 2026-04-22 16:41 | 52.51207 | 22.32652 | 38035 ft | 482 kts | 188° |
| 2026-04-22 16:41 | 52.44651 | 22.30326 | 38041 ft | 482 kts | 188° |
| 2026-04-22 16:42 | 52.38098 | 22.28002 | 38038 ft | 482 kts | 188° |
| 2026-04-22 16:42 | 52.31549 | 22.25680 | 38059 ft | 482 kts | 188° |
| 2026-04-22 16:43 | 52.24996 | 22.23377 | 38054 ft | 481 kts | 188° |
| 2026-04-22 16:43 | 52.18455 | 22.21103 | 38074 ft | 481 kts | 188° |
| 2026-04-22 16:44 | 52.12127 | 22.17441 | 38072 ft | 486 kts | 204° |
| 2026-04-22 16:44 | 52.06042 | 22.12634 | 38064 ft | 486 kts | 203° |
| 2026-04-22 16:45 | 51.99948 | 22.07884 | 38060 ft | 486 kts | 203° |
| 2026-04-22 16:45 | 51.93847 | 22.03162 | 38063 ft | 486 kts | 203° |
| 2026-04-22 16:46 | 51.87749 | 21.98444 | 38073 ft | 486 kts | 203° |
| 2026-04-22 16:46 | 51.81651 | 21.93731 | 38071 ft | 486 kts | 203° |
| 2026-04-22 16:47 | 51.75554 | 21.89021 | 38074 ft | 486 kts | 203° |
| 2026-04-22 16:47 | 51.69452 | 21.84327 | 38074 ft | 486 kts | 203° |
| 2026-04-22 16:48 | 51.63353 | 21.79650 | 38088 ft | 485 kts | 203° |
| 2026-04-22 16:48 | 51.57219 | 21.74964 | 38086 ft | 485 kts | 203° |
| 2026-04-22 16:49 | 51.51116 | 21.70321 | 38089 ft | 485 kts | 203° |
| 2026-04-22 16:49 | 51.45019 | 21.65696 | 38088 ft | 485 kts | 203° |
| 2026-04-22 16:50 | 51.38917 | 21.61080 | 38094 ft | 485 kts | 203° |
| 2026-04-22 16:50 | 51.32815 | 21.56472 | 38097 ft | 485 kts | 203° |
| 2026-04-22 16:51 | 51.26712 | 21.51871 | 38096 ft | 485 kts | 203° |
| 2026-04-22 16:51 | 51.20601 | 21.47292 | 38103 ft | 485 kts | 203° |
| 2026-04-22 16:52 | 51.14499 | 21.42737 | 38104 ft | 484 kts | 203° |
| 2026-04-22 16:52 | 51.08403 | 21.38188 | 38104 ft | 484 kts | 203° |
| 2026-04-22 16:53 | 51.02299 | 21.33642 | 38126 ft | 484 kts | 203° |
| 2026-04-22 16:53 | 50.96202 | 21.29107 | 38121 ft | 484 kts | 203° |
| 2026-04-22 16:54 | 50.90105 | 21.24598 | 38122 ft | 483 kts | 203° |
| 2026-04-22 16:54 | 50.84004 | 21.20108 | 38117 ft | 483 kts | 203° |
| 2026-04-22 16:55 | 50.77909 | 21.15625 | 38128 ft | 483 kts | 203° |
| 2026-04-22 16:55 | 50.71814 | 21.11156 | 38124 ft | 483 kts | 203° |
| 2026-04-22 16:56 | 50.65716 | 21.06700 | 38125 ft | 483 kts | 203° |
| 2026-04-22 16:56 | 50.59625 | 21.02265 | 38130 ft | 482 kts | 202° |
| 2026-04-22 16:57 | 50.53531 | 20.97837 | 38124 ft | 482 kts | 202° |
| 2026-04-22 16:57 | 50.47447 | 20.93432 | 38121 ft | 481 kts | 202° |
| 2026-04-22 16:58 | 50.42393 | 20.89781 | 38121 ft | 481 kts | 202° |
| 2026-04-22 16:58 | 50.35283 | 20.84666 | 38133 ft | 481 kts | 202° |
| 2026-04-22 16:59 | 50.29203 | 20.80299 | 38126 ft | 481 kts | 202° |
| 2026-04-22 16:59 | 50.23165 | 20.75971 | 38128 ft | 480 kts | 202° |
| 2026-04-22 17:00 | 50.17048 | 20.71595 | 38128 ft | 480 kts | 202° |
| 2026-04-22 17:00 | 50.07942 | 20.65116 | 38136 ft | 479 kts | 202° |
| 2026-04-22 17:01 | 50.01877 | 20.60809 | 38136 ft | 479 kts | 202° |
| 2026-04-22 17:01 | 49.95816 | 20.56511 | 38151 ft | 479 kts | 202° |
| 2026-04-22 17:02 | 49.89792 | 20.52259 | 38141 ft | 478 kts | 202° |
| 2026-04-22 17:02 | 49.83696 | 20.47978 | 38143 ft | 478 kts | 202° |
| 2026-04-22 17:03 | 49.77641 | 20.43739 | 38143 ft | 477 kts | 202° |
| 2026-04-22 17:03 | 49.71556 | 20.39656 | 38146 ft | 476 kts | 199° |
| 2026-04-22 17:04 | 49.65337 | 20.36167 | 38147 ft | 475 kts | 197° |
| 2026-04-22 17:04 | 49.59078 | 20.32877 | 38150 ft | 475 kts | 197° |
| 2026-04-22 17:05 | 49.52841 | 20.29496 | 38156 ft | 475 kts | 198° |
| 2026-04-22 17:05 | 49.46627 | 20.26020 | 38141 ft | 475 kts | 198° |
| 2026-04-22 17:06 | 49.40422 | 20.22533 | 38134 ft | 475 kts | 198° |
| 2026-04-22 17:06 | 49.34205 | 20.19075 | 38135 ft | 475 kts | 198° |
| 2026-04-22 17:07 | 49.27860 | 20.16357 | 38138 ft | 473 kts | 189° |
| 2026-04-22 17:07 | 49.21432 | 20.14258 | 38130 ft | 473 kts | 189° |
| 2026-04-22 17:08 | 49.15039 | 20.12155 | 38124 ft | 473 kts | 189° |
| 2026-04-22 17:08 | 49.08570 | 20.10032 | 38127 ft | 472 kts | 190° |
| 2026-04-22 17:09 | 49.02187 | 20.07954 | 38125 ft | 472 kts | 190° |
| 2026-04-22 17:09 | 48.95763 | 20.05873 | 37681 ft | 471 kts | 189° |
| 2026-04-22 17:10 | 48.92561 | 20.04834 | 37031 ft | 470 kts | 189° |
| 2026-04-22 17:10 | 48.89355 | 20.03789 | 36227 ft | 473 kts | 189° |
| 2026-04-22 17:10 | 48.86129 | 20.02739 | 35402 ft | 476 kts | 189° |
| 2026-04-22 17:10 | 48.82887 | 20.01687 | 34771 ft | 475 kts | 188° |
| 2026-04-22 17:11 | 48.79663 | 20.00642 | 34181 ft | 472 kts | 188° |
| 2026-04-22 17:11 | 48.76456 | 19.99607 | 33521 ft | 470 kts | 187° |
| 2026-04-22 17:11 | 48.73276 | 19.98580 | 32951 ft | 465 kts | 187° |
| 2026-04-22 17:11 | 48.70125 | 19.97563 | 32345 ft | 462 kts | 186° |
| 2026-04-22 17:12 | 48.66989 | 19.96553 | 31758 ft | 459 kts | 186° |
| 2026-04-22 17:12 | 48.63872 | 19.95554 | 31182 ft | 456 kts | 186° |
| 2026-04-22 17:12 | 48.60776 | 19.94561 | 30616 ft | 454 kts | 186° |
| 2026-04-22 17:12 | 48.58736 | 19.93906 | 30239 ft | 452 kts | 185° |
| 2026-04-22 17:13 | 48.55621 | 19.92909 | 29612 ft | 449 kts | 185° |
| 2026-04-22 17:13 | 48.52580 | 19.91938 | 29074 ft | 444 kts | 185° |
| 2026-04-22 17:13 | 48.49615 | 19.90991 | 28551 ft | 439 kts | 186° |
| 2026-04-22 17:13 | 48.46641 | 19.90046 | 28013 ft | 435 kts | 186° |
| 2026-04-22 17:14 | 48.43681 | 19.89145 | 27425 ft | 432 kts | 186° |
| 2026-04-22 17:14 | 48.40742 | 19.88284 | 26815 ft | 430 kts | 186° |
| 2026-04-22 17:14 | 48.37814 | 19.87445 | 26200 ft | 425 kts | 186° |
| 2026-04-22 17:14 | 48.34956 | 19.86628 | 25625 ft | 413 kts | 186° |
| 2026-04-22 17:15 | 48.33088 | 19.86094 | 25244 ft | 413 kts | 187° |
| 2026-04-22 17:15 | 48.29319 | 19.85013 | 24487 ft | 412 kts | 187° |
| 2026-04-22 17:15 | 48.26497 | 19.84200 | 23934 ft | 412 kts | 187° |
| 2026-04-22 17:15 | 48.23688 | 19.83390 | 23336 ft | 411 kts | 188° |
| 2026-04-22 17:16 | 48.20877 | 19.82579 | 22693 ft | 411 kts | 188° |
| 2026-04-22 17:16 | 48.18063 | 19.81763 | 22068 ft | 411 kts | 188° |
| 2026-04-22 17:16 | 48.15258 | 19.80952 | 21440 ft | 411 kts | 188° |
| 2026-04-22 17:16 | 48.12451 | 19.80143 | 20832 ft | 409 kts | 188° |
| 2026-04-22 17:17 | 48.09704 | 19.79351 | 20237 ft | 399 kts | 188° |
| 2026-04-22 17:17 | 48.06975 | 19.78562 | 19655 ft | 399 kts | 189° |
| 2026-04-22 17:17 | 48.04253 | 19.77775 | 19094 ft | 398 kts | 189° |
| 2026-04-22 17:17 | 48.01531 | 19.76989 | 18529 ft | 398 kts | 189° |
| 2026-04-22 17:18 | 47.98820 | 19.76207 | 17913 ft | 397 kts | 189° |
| 2026-04-22 17:18 | 47.96109 | 19.75431 | 17283 ft | 396 kts | 189° |
| 2026-04-22 17:18 | 47.93421 | 19.74660 | 16650 ft | 387 kts | 189° |
| 2026-04-22 17:18 | 47.90830 | 19.73917 | 16048 ft | 372 kts | 189° |
| 2026-04-22 17:19 | 47.85915 | 19.72515 | 14874 ft | 349 kts | 189° |
| 2026-04-22 17:19 | 47.81270 | 19.71187 | 13812 ft | 335 kts | 190° |
| 2026-04-22 17:20 | 47.76715 | 19.69879 | 12970 ft | 331 kts | 190° |
| 2026-04-22 17:20 | 47.72255 | 19.68614 | 12371 ft | 316 kts | 190° |
| 2026-04-22 17:21 | 47.70121 | 19.68010 | 12041 ft | 311 kts | 191° |
| 2026-04-22 17:21 | 47.65917 | 19.66813 | 11116 ft | 305 kts | 191° |
| 2026-04-22 17:22 | 47.61760 | 19.65631 | 10185 ft | 298 kts | 191° |
| 2026-04-22 17:22 | 47.59752 | 19.65062 | 9680 ft | 298 kts | 192° |
| 2026-04-22 17:22 | 47.55707 | 19.63922 | 8834 ft | 293 kts | 192° |
| 2026-04-22 17:23 | 47.53707 | 19.63359 | 8412 ft | 292 kts | 192° |
| 2026-04-22 17:23 | 47.49728 | 19.62236 | 7546 ft | 289 kts | 192° |
| 2026-04-22 17:23 | 47.47763 | 19.61686 | 7117 ft | 287 kts | 191° |
| 2026-04-22 17:24 | 47.45804 | 19.61136 | 6664 ft | 284 kts | 192° |
| 2026-04-22 17:24 | 47.43867 | 19.60593 | 6215 ft | 283 kts | 191° |
| 2026-04-22 17:24 | 47.41975 | 19.60062 | 5950 ft | 267 kts | 192° |
| 2026-04-22 17:24 | 47.40176 | 19.59554 | 5558 ft | 262 kts | 191° |
| 2026-04-22 17:25 | 47.38425 | 19.59063 | 5430 ft | 250 kts | 191° |
| 2026-04-22 17:25 | 47.36759 | 19.58550 | 5301 ft | 239 kts | 198° |
| 2026-04-22 17:25 | 47.35276 | 19.57579 | 5160 ft | 229 kts | 214° |
| 2026-04-22 17:25 | 47.34043 | 19.56147 | 5044 ft | 225 kts | 225° |
| 2026-04-22 17:26 | 47.32892 | 19.54580 | 4868 ft | 225 kts | 225° |
| 2026-04-22 17:26 | 47.31745 | 19.53027 | 4589 ft | 223 kts | 225° |
| 2026-04-22 17:26 | 47.30808 | 19.51248 | 4163 ft | 222 kts | 251° |
| 2026-04-22 17:26 | 47.30650 | 19.49056 | 3874 ft | 213 kts | 283° |
| 2026-04-22 17:27 | 47.31253 | 19.47141 | 3637 ft | 205 kts | 311° |
| 2026-04-22 17:27 | 47.32200 | 19.45605 | 3382 ft | 201 kts | 314° |
| 2026-04-22 17:27 | 47.33143 | 19.44104 | 3109 ft | 198 kts | 313° |
| 2026-04-22 17:27 | 47.34071 | 19.42617 | 2855 ft | 195 kts | 314° |
| 2026-04-22 17:28 | 47.34966 | 19.41181 | 2604 ft | 186 kts | 314° |
| 2026-04-22 17:28 | 47.35826 | 19.39799 | 2341 ft | 179 kts | 314° |
| 2026-04-22 17:28 | 47.36645 | 19.38482 | 2091 ft | 169 kts | 314° |
| 2026-04-22 17:28 | 47.37402 | 19.37265 | 1875 ft | 153 kts | 314° |
| 2026-04-22 17:29 | 47.38087 | 19.36163 | 1688 ft | 141 kts | 314° |
| 2026-04-22 17:29 | 47.38740 | 19.35113 | 1491 ft | 137 kts | 314° |
| 2026-04-22 17:29 | 47.39381 | 19.34081 | 1306 ft | 136 kts | 314° |
| 2026-04-22 17:29 | 47.40018 | 19.33056 | 1119 ft | 136 kts | 314° |
| 2026-04-22 17:30 | 47.40660 | 19.32022 | 942 ft | 137 kts | 313° |
| 2026-04-22 17:30 | 47.41301 | 19.30988 | 753 ft | 136 kts | 312° |
| 2026-04-22 17:30 | 47.41940 | 19.29966 | 574 ft | 135 kts | 313° |
| 2026-04-22 17:30 | 47.42566 | 19.28952 | 452 ft | 131 kts | 312° |
| 2026-04-22 17:31 | 47.43089 | 19.28105 | 460 ft | 88 kts | 313° |
| 2026-04-22 17:31 | 47.43388 | 19.27623 | 467 ft | 43 kts | 312° |
| 2026-04-22 17:31 | 47.43572 | 19.27328 | 473 ft | 36 kts | 313° |
| 2026-04-22 17:31 | 47.43709 | 19.27056 | 472 ft | 30 kts | 295° |
| 2026-04-22 17:32 | 47.43758 | 19.26814 | 465 ft | 21 kts | 283° |
| 2026-04-22 17:32 | 47.43786 | 19.26630 | 460 ft | 13 kts | 283° |
| 2026-04-22 17:32 | 47.43801 | 19.26536 | 459 ft | 8 kts | 282° |
| 2026-04-22 17:32 | 47.43803 | 19.26507 | 459 ft | 5 kts | 271° |
| 2026-04-22 17:33 | 47.43793 | 19.26472 | 458 ft | 6 kts | 232° |
| 2026-04-22 17:33 | 47.43742 | 19.26404 | 458 ft | 10 kts | 222° |
| 2026-04-22 17:33 | 47.43682 | 19.26324 | 457 ft | 13 kts | 222° |
| 2026-04-22 17:33 | 47.43609 | 19.26226 | 457 ft | 9 kts | 222° |
| 2026-04-22 17:34 | 47.43564 | 19.26204 | 457 ft | 6 kts | 151° |
| 2026-04-22 17:34 | 47.43523 | 19.26269 | 457 ft | 10 kts | 130° |
| 2026-04-22 17:34 | 47.43493 | 19.26299 | 457 ft | 3 kts | 195° |
| 2026-04-22 17:34 | 47.43470 | 19.26273 | 456 ft | 2 kts | 219° |
| 2026-04-22 17:35 | 47.43458 | 19.26258 | 457 ft | 2 kts | 221° |
| 2026-04-22 17:35 | 47.43452 | 19.26250 | 457 ft | 1 kts | 221° |
| 2026-04-22 17:35 | 47.43451 | 19.26249 | 457 ft | 0 kts | 221° |
| 2026-04-22 17:35 | 47.43451 | 19.26248 | 457 ft | 0 kts | 221° |